^^
Paulen-Weather Station Historical Data
Daily Summary for May 18, 2022 Units:  Both    English   Metric
Daily Weekly Monthly Yearly Custom
  High: Low: Average:
Temperature: 53.6 °F /  12 °C 50 °F /  10 °C 52.2 °F /  11.2 °C
Dew Point: 44.6 °F /  7 °C 41 °F /  5 °C 43.3 °F /  6.3 °C
Humidity: 78% 64% 72%
Wind Speed: 9.9mph /  16km/h - 5.6mph /  9km/h
Wind Gust: 7.5mph /  12km/h - -
Wind- - ENE
Pressure: 30.3 in /  1024.35 hPa 30.2 in /  1023.84 hPa -
Precipitation: 0 in /  0 mm    
Historical Graphs
 
 
Tabular Data for May 18, 2022
Time Temperature Dew Point Pressure Wind Wind Speed Wind Gust Humidity Rainfall Rate (Hourly) solar
00:04 53.6 °F /  12 °C 41 °F /  5 °C 30.2in /  1024.25hPa N 8.1mph /  13km/h 6.8mph /  11km/h 64% 0in /  0mm 0 W/m2
00:09 53.6 °F /  12 °C 42.8 °F /  6 °C 30.2in /  1024.25hPa NNE 7.5mph /  12km/h 6.8mph /  11km/h 64% 0in /  0mm 0 W/m2
00:14 53.6 °F /  12 °C 41 °F /  5 °C 30.2in /  1024.25hPa NNE 8.1mph /  13km/h 6.2mph /  10km/h 64% 0in /  0mm 0 W/m2
00:19 53.6 °F /  12 °C 42.8 °F /  6 °C 30.2in /  1024.25hPa ENE 6.8mph /  11km/h 4.3mph /  7km/h 65% 0in /  0mm 0 W/m2
00:24 53.6 °F /  12 °C 42.8 °F /  6 °C 30.2in /  1024.25hPa NNE 6.8mph /  11km/h 6.2mph /  10km/h 66% 0in /  0mm 0 W/m2
00:29 53.6 °F /  12 °C 42.8 °F /  6 °C 30.2in /  1024.18hPa N 9.9mph /  16km/h 7.5mph /  12km/h 66% 0in /  0mm 0 W/m2
00:34 53.6 °F /  12 °C 42.8 °F /  6 °C 30.2in /  1024.21hPa NNE 8.1mph /  13km/h 6.8mph /  11km/h 66% 0in /  0mm 0 W/m2
00:39 53.6 °F /  12 °C 42.8 °F /  6 °C 30.2in /  1024.25hPa NE 7.5mph /  12km/h 6.2mph /  10km/h 66% 0in /  0mm 0 W/m2
00:44 53.6 °F /  12 °C 42.8 °F /  6 °C 30.3in /  1024.28hPa NE 4.3mph /  7km/h 3.1mph /  5km/h 67% 0in /  0mm 0 W/m2
00:49 53.6 °F /  12 °C 42.8 °F /  6 °C 30.2in /  1024.25hPa NE 8.1mph /  13km/h 6.2mph /  10km/h 67% 0in /  0mm 0 W/m2
00:54 53.6 °F /  12 °C 42.8 °F /  6 °C 30.2in /  1024.25hPa N 8.7mph /  14km/h 6.8mph /  11km/h 68% 0in /  0mm 0 W/m2
00:59 53.6 °F /  12 °C 42.8 °F /  6 °C 30.2in /  1024.21hPa NNE 7.5mph /  12km/h 5.6mph /  9km/h 68% 0in /  0mm 0 W/m2
01:04 53.6 °F /  12 °C 42.8 °F /  6 °C 30.2in /  1024.18hPa N 7.5mph /  12km/h 6.2mph /  10km/h 69% 0in /  0mm 0 W/m2
01:09 53.6 °F /  12 °C 44.6 °F /  7 °C 30.2in /  1024.18hPa NNE 9.3mph /  15km/h 6.2mph /  10km/h 70% 0in /  0mm 0 W/m2
01:14 53.6 °F /  12 °C 44.6 °F /  7 °C 30.2in /  1024.21hPa NNE 8.1mph /  13km/h 6.2mph /  10km/h 71% 0in /  0mm 0 W/m2
01:19 53.6 °F /  12 °C 44.6 °F /  7 °C 30.2in /  1024.25hPa NNE 8.1mph /  13km/h 6.2mph /  10km/h 71% 0in /  0mm 0 W/m2
01:24 53.6 °F /  12 °C 44.6 °F /  7 °C 30.2in /  1024.25hPa NNE 7.5mph /  12km/h 6.2mph /  10km/h 71% 0in /  0mm 0 W/m2
01:29 53.6 °F /  12 °C 44.6 °F /  7 °C 30.2in /  1024.25hPa NNE 6.2mph /  10km/h 5.6mph /  9km/h 72% 0in /  0mm 0 W/m2
01:34 53.6 °F /  12 °C 44.6 °F /  7 °C 30.3in /  1024.28hPa NE 6.2mph /  10km/h 5.6mph /  9km/h 73% 0in /  0mm 0 W/m2
01:39 51.8 °F /  11 °C 44.6 °F /  7 °C 30.3in /  1024.28hPa N 6.2mph /  10km/h 5mph /  8km/h 73% 0in /  0mm 0 W/m2
01:44 51.8 °F /  11 °C 44.6 °F /  7 °C 30.3in /  1024.35hPa NE 5.6mph /  9km/h 5mph /  8km/h 72% 0in /  0mm 0 W/m2
01:49 51.8 °F /  11 °C 42.8 °F /  6 °C 30.3in /  1024.35hPa NE 5.6mph /  9km/h 5mph /  8km/h 71% 0in /  0mm 0 W/m2
01:54 51.8 °F /  11 °C 42.8 °F /  6 °C 30.3in /  1024.31hPa NE 4.3mph /  7km/h 3.7mph /  6km/h 71% 0in /  0mm 0 W/m2
01:59 51.8 °F /  11 °C 42.8 °F /  6 °C 30.3in /  1024.31hPa ENE 3.7mph /  6km/h 2.5mph /  4km/h 71% 0in /  0mm 0 W/m2
02:04 51.8 °F /  11 °C 42.8 °F /  6 °C 30.2in /  1024.25hPa ENE 3.1mph /  5km/h 3.1mph /  5km/h 71% 0in /  0mm 0 W/m2
02:09 51.8 °F /  11 °C 42.8 °F /  6 °C 30.2in /  1024.25hPa NNE 3.7mph /  6km/h 3.1mph /  5km/h 71% 0in /  0mm 0 W/m2
02:14 51.8 °F /  11 °C 42.8 °F /  6 °C 30.3in /  1024.28hPa N 3.7mph /  6km/h 3.7mph /  6km/h 72% 0in /  0mm 0 W/m2
02:19 51.8 °F /  11 °C 42.8 °F /  6 °C 30.3in /  1024.28hPa N 4.3mph /  7km/h 3.7mph /  6km/h 74% 0in /  0mm 0 W/m2
02:24 51.8 °F /  11 °C 42.8 °F /  6 °C 30.2in /  1024.18hPa N 4.3mph /  7km/h 4.3mph /  7km/h 73% 0in /  0mm 0 W/m2
02:29 51.8 °F /  11 °C 42.8 °F /  6 °C 30.2in /  1024.15hPa N 5mph /  8km/h 4.3mph /  7km/h 71% 0in /  0mm 0 W/m2
02:34 51.8 °F /  11 °C 42.8 °F /  6 °C 30.2in /  1024.11hPa NNE 5mph /  8km/h 4.3mph /  7km/h 71% 0in /  0mm 0 W/m2
02:39 51.8 °F /  11 °C 42.8 °F /  6 °C 30.2in /  1024.15hPa N 5mph /  8km/h 3.7mph /  6km/h 72% 0in /  0mm 0 W/m2
02:44 51.8 °F /  11 °C 42.8 °F /  6 °C 30.2in /  1024.15hPa N 4.3mph /  7km/h 4.3mph /  7km/h 72% 0in /  0mm 0 W/m2
02:49 51.8 °F /  11 °C 42.8 °F /  6 °C 30.2in /  1024.11hPa NNE 6.2mph /  10km/h 6.2mph /  10km/h 71% 0in /  0mm 0 W/m2
02:54 51.8 °F /  11 °C 42.8 °F /  6 °C 30.2in /  1024.21hPa NNE 5mph /  8km/h 5mph /  8km/h 72% 0in /  0mm 0 W/m2
02:59 51.8 °F /  11 °C 42.8 °F /  6 °C 30.2in /  1024.11hPa N 3.1mph /  5km/h 2.5mph /  4km/h 72% 0in /  0mm 0 W/m2
03:04 51.8 °F /  11 °C 42.8 °F /  6 °C 30.2in /  1024.08hPa NE 2.5mph /  4km/h 1.9mph /  3km/h 72% 0in /  0mm 0 W/m2
03:09 51.8 °F /  11 °C 42.8 °F /  6 °C 30.2in /  1024.08hPa NNE 1.9mph /  3km/h 3.1mph /  5km/h 72% 0in /  0mm 0 W/m2
03:14 51.8 °F /  11 °C 42.8 °F /  6 °C 30.2in /  1024.18hPa N 3.7mph /  6km/h 3.1mph /  5km/h 74% 0in /  0mm 0 W/m2
03:19 51.8 °F /  11 °C 44.6 °F /  7 °C 30.2in /  1024.18hPa NNW 5mph /  8km/h 5.6mph /  9km/h 76% 0in /  0mm 0 W/m2
03:24 50 °F /  10 °C 44.6 °F /  7 °C 30.2in /  1024.11hPa N 5mph /  8km/h 5mph /  8km/h 76% 0in /  0mm 0 W/m2
03:29 50 °F /  10 °C 42.8 °F /  6 °C 30.2in /  1024.11hPa N 4.3mph /  7km/h 4.3mph /  7km/h 76% 0in /  0mm 0 W/m2
03:34 50 °F /  10 °C 42.8 °F /  6 °C 30.2in /  1024.15hPa N 5mph /  8km/h 4.3mph /  7km/h 76% 0in /  0mm 0 W/m2
03:39 50 °F /  10 °C 42.8 °F /  6 °C 30.2in /  1024.15hPa NNE 2.5mph /  4km/h 1.9mph /  3km/h 76% 0in /  0mm 0 W/m2
03:44 51.8 °F /  11 °C 44.6 °F /  7 °C 30.2in /  1024.21hPa N 3.7mph /  6km/h 4.3mph /  7km/h 76% 0in /  0mm 0 W/m2
03:49 51.8 °F /  11 °C 44.6 °F /  7 °C 30.2in /  1024.15hPa N 4.3mph /  7km/h 4.3mph /  7km/h 78% 0in /  0mm 0 W/m2
03:54 50 °F /  10 °C 44.6 °F /  7 °C 30.2in /  1024.18hPa N 6.8mph /  11km/h 6.2mph /  10km/h 78% 0in /  0mm 0 W/m2
03:59 50 °F /  10 °C 44.6 °F /  7 °C 30.2in /  1024.18hPa N 6.2mph /  10km/h 6.2mph /  10km/h 78% 0in /  0mm 0 W/m2
04:04 50 °F /  10 °C 42.8 °F /  6 °C 30.2in /  1024.15hPa N 3.7mph /  6km/h 4.3mph /  7km/h 77% 0in /  0mm 0 W/m2
04:09 50 °F /  10 °C 42.8 °F /  6 °C 30.2in /  1024.04hPa N 5mph /  8km/h 4.3mph /  7km/h 77% 0in /  0mm 0 W/m2
04:14 50 °F /  10 °C 44.6 °F /  7 °C 30.2in /  1024.01hPa N 5mph /  8km/h 5.6mph /  9km/h 77% 0in /  0mm 0 W/m2
04:19 50 °F /  10 °C 44.6 °F /  7 °C 30.2in /  1023.84hPa NNE 4.3mph /  7km/h 5mph /  8km/h 77% 0in /  0mm 0 W/m2
Compliments of Weather Underground - 2 mb